sensor_id;sensor_type;location;lat;lon;timestamp;pressure;altitude;pressure_sealevel;temperature;humidity
73870;BME280;64924;42.140;24.762;2023-07-31T00:01:39;98994.13;;;27.09;33.93
73870;BME280;64924;42.140;24.762;2023-07-31T00:04:04;99003.34;;;27.18;33.78
73870;BME280;64924;42.140;24.762;2023-07-31T00:06:30;98998.41;;;27.15;33.79
73870;BME280;64924;42.140;24.762;2023-07-31T00:08:56;98985.59;;;27.06;33.88
73870;BME280;64924;42.140;24.762;2023-07-31T00:11:21;99004.66;;;27.21;33.91
73870;BME280;64924;42.140;24.762;2023-07-31T00:13:47;99003.72;;;27.25;33.83
73870;BME280;64924;42.140;24.762;2023-07-31T00:16:12;99001.94;;;27.29;33.61
73870;BME280;64924;42.140;24.762;2023-07-31T00:18:37;98965.25;;;27.05;33.64
73870;BME280;64924;42.140;24.762;2023-07-31T00:21:03;99007.88;;;27.37;33.49
73870;BME280;64924;42.140;24.762;2023-07-31T00:23:29;99024.66;;;27.45;33.40
73870;BME280;64924;42.140;24.762;2023-07-31T00:25:54;99020.53;;;27.43;33.66
73870;BME280;64924;42.140;24.762;2023-07-31T00:28:20;99005.72;;;27.34;33.44
73870;BME280;64924;42.140;24.762;2023-07-31T00:30:45;99017.56;;;27.48;33.38
73870;BME280;64924;42.140;24.762;2023-07-31T00:33:11;99021.59;;;27.64;33.13
73870;BME280;64924;42.140;24.762;2023-07-31T00:35:37;99009.28;;;27.65;33.09
73870;BME280;64924;42.140;24.762;2023-07-31T00:38:02;99010.13;;;27.66;33.20
73870;BME280;64924;42.140;24.762;2023-07-31T00:40:28;99020.16;;;27.75;32.96
73870;BME280;64924;42.140;24.762;2023-07-31T00:42:53;98966.69;;;27.42;32.99
73870;BME280;64924;42.140;24.762;2023-07-31T00:45:19;99019.63;;;27.65;33.27
73870;BME280;64924;42.140;24.762;2023-07-31T00:47:45;99014.00;;;27.56;33.58
73870;BME280;64924;42.140;24.762;2023-07-31T00:50:11;98981.09;;;27.36;33.32
73870;BME280;64924;42.140;24.762;2023-07-31T00:52:36;99008.41;;;27.56;33.30
73870;BME280;64924;42.140;24.762;2023-07-31T00:55:03;99025.66;;;27.58;33.60
73870;BME280;64924;42.140;24.762;2023-07-31T00:57:29;99025.06;;;27.70;33.08
73870;BME280;64924;42.140;24.762;2023-07-31T00:59:55;98986.91;;;27.56;33.12
73870;BME280;64924;42.140;24.762;2023-07-31T01:02:21;99008.19;;;27.75;33.05
73870;BME280;64924;42.140;24.762;2023-07-31T01:04:46;99022.47;;;27.82;32.96
73870;BME280;64924;42.140;24.762;2023-07-31T01:07:31;99037.91;;;27.79;33.11
73870;BME280;64924;42.140;24.762;2023-07-31T01:10:16;99022.97;;;27.75;33.34
73870;BME280;64924;42.140;24.762;2023-07-31T01:12:45;99027.72;;;27.75;33.23
73870;BME280;64924;42.140;24.762;2023-07-31T01:15:12;99038.09;;;27.83;33.20
73870;BME280;64924;42.140;24.762;2023-07-31T01:17:39;99032.97;;;27.85;33.18
73870;BME280;64924;42.140;24.762;2023-07-31T01:20:24;99029.88;;;27.95;32.71
73870;BME280;64924;42.140;24.762;2023-07-31T01:31:24;99000.47;;;27.80;32.77
73870;BME280;64924;42.140;24.762;2023-07-31T01:33:51;99029.88;;;27.95;33.05
73870;BME280;64924;42.140;24.762;2023-07-31T01:36:19;99029.88;;;27.95;33.21
73870;BME280;64924;42.140;24.762;2023-07-31T01:38:44;99036.44;;;27.90;33.00
73870;BME280;64924;42.140;24.762;2023-07-31T01:41:10;99028.22;;;27.85;33.00
73870;BME280;64924;42.140;24.762;2023-07-31T01:43:35;98996.09;;;27.57;33.18
73870;BME280;64924;42.140;24.762;2023-07-31T01:46:01;99024.06;;;27.66;33.26
73870;BME280;64924;42.140;24.762;2023-07-31T01:48:26;99030.16;;;27.68;33.22
73870;BME280;64924;42.140;24.762;2023-07-31T01:50:51;99032.94;;;27.68;33.33
73870;BME280;64924;42.140;24.762;2023-07-31T01:53:17;99026.22;;;27.69;33.56
73870;BME280;64924;42.140;24.762;2023-07-31T01:55:42;99008.28;;;27.61;33.50
73870;BME280;64924;42.140;24.762;2023-07-31T01:58:09;99029.50;;;27.71;33.37
73870;BME280;64924;42.140;24.762;2023-07-31T02:00:35;99022.09;;;27.66;33.29
73870;BME280;64924;42.140;24.762;2023-07-31T02:03:00;99007.25;;;27.57;33.63
73870;BME280;64924;42.140;24.762;2023-07-31T02:05:26;99009.38;;;27.51;33.36
73870;BME280;64924;42.140;24.762;2023-07-31T02:07:51;99015.78;;;27.52;33.43
73870;BME280;64924;42.140;24.762;2023-07-31T02:10:17;99027.59;;;27.49;33.58
73870;BME280;64924;42.140;24.762;2023-07-31T02:12:42;99010.84;;;27.40;33.91
73870;BME280;64924;42.140;24.762;2023-07-31T02:15:08;99030.22;;;27.45;33.58
73870;BME280;64924;42.140;24.762;2023-07-31T02:17:33;98987.94;;;27.21;33.78
73870;BME280;64924;42.140;24.762;2023-07-31T02:20:00;98984.38;;;27.29;33.83
73870;BME280;64924;42.140;24.762;2023-07-31T02:22:26;99021.34;;;27.52;33.59
73870;BME280;64924;42.140;24.762;2023-07-31T02:24:51;99021.03;;;27.53;33.40
73870;BME280;64924;42.140;24.762;2023-07-31T02:27:16;99021.53;;;27.55;33.54
73870;BME280;64924;42.140;24.762;2023-07-31T02:29:42;99016.28;;;27.54;33.70
73870;BME280;64924;42.140;24.762;2023-07-31T02:32:07;99019.56;;;27.56;34.08
73870;BME280;64924;42.140;24.762;2023-07-31T02:34:33;98976.69;;;27.35;34.45
73870;BME280;64924;42.140;24.762;2023-07-31T02:36:58;99014.50;;;27.58;34.67
73870;BME280;64924;42.140;24.762;2023-07-31T02:39:24;99005.13;;;27.54;35.22
73870;BME280;64924;42.140;24.762;2023-07-31T02:41:49;99003.97;;;27.55;35.38
73870;BME280;64924;42.140;24.762;2023-07-31T02:44:15;99000.84;;;27.56;36.01
73870;BME280;64924;42.140;24.762;2023-07-31T02:46:40;98993.94;;;27.54;36.43
73870;BME280;64924;42.140;24.762;2023-07-31T02:49:06;99005.03;;;27.68;37.20
73870;BME280;64924;42.140;24.762;2023-07-31T02:51:31;98940.03;;;27.27;37.85
73870;BME280;64924;42.140;24.762;2023-07-31T02:53:56;99009.00;;;27.75;38.02
73870;BME280;64924;42.140;24.762;2023-07-31T02:56:22;99001.78;;;27.74;38.09
73870;BME280;64924;42.140;24.762;2023-07-31T02:58:47;98984.66;;;27.67;39.04
73870;BME280;64924;42.140;24.762;2023-07-31T03:01:13;99001.28;;;27.72;39.12
73870;BME280;64924;42.140;24.762;2023-07-31T03:03:41;98989.25;;;27.63;40.12
73870;BME280;64924;42.140;24.762;2023-07-31T03:06:06;98965.72;;;27.47;40.20
73870;BME280;64924;42.140;24.762;2023-07-31T03:08:32;98998.13;;;27.65;40.41
73870;BME280;64924;42.140;24.762;2023-07-31T03:10:57;98978.75;;;27.60;40.66
73870;BME280;64924;42.140;24.762;2023-07-31T03:13:23;98979.34;;;27.57;40.98
73870;BME280;64924;42.140;24.762;2023-07-31T03:15:48;98979.31;;;27.48;41.40
73870;BME280;64924;42.140;24.762;2023-07-31T03:18:14;99002.66;;;27.52;41.94
73870;BME280;64924;42.140;24.762;2023-07-31T03:20:42;99005.44;;;27.52;42.82
73870;BME280;64924;42.140;24.762;2023-07-31T03:23:08;99006.22;;;27.36;45.18
73870;BME280;64924;42.140;24.762;2023-07-31T03:25:33;99005.50;;;27.21;46.21
73870;BME280;64924;42.140;24.762;2023-07-31T03:27:59;99000.56;;;27.18;47.24
73870;BME280;64924;42.140;24.762;2023-07-31T03:30:24;98973.16;;;26.89;48.06
73870;BME280;64924;42.140;24.762;2023-07-31T03:32:50;99001.31;;;27.02;48.60
73870;BME280;64924;42.140;24.762;2023-07-31T03:35:15;99021.03;;;27.05;49.28
73870;BME280;64924;42.140;24.762;2023-07-31T03:37:41;99017.22;;;27.01;50.13
73870;BME280;64924;42.140;24.762;2023-07-31T03:40:07;99038.56;;;27.06;50.20
73870;BME280;64924;42.140;24.762;2023-07-31T03:42:32;99002.31;;;26.83;50.30
73870;BME280;64924;42.140;24.762;2023-07-31T03:44:58;99035.63;;;27.11;49.97
73870;BME280;64924;42.140;24.762;2023-07-31T03:47:23;99044.97;;;27.06;50.06
73870;BME280;64924;42.140;24.762;2023-07-31T03:49:49;99040.41;;;26.88;50.57
73870;BME280;64924;42.140;24.762;2023-07-31T03:52:14;99059.41;;;26.86;51.03
73870;BME280;64924;42.140;24.762;2023-07-31T03:54:41;99022.09;;;26.51;51.34
73870;BME280;64924;42.140;24.762;2023-07-31T03:57:06;99029.75;;;26.45;51.92
73870;BME280;64924;42.140;24.762;2023-07-31T03:59:32;99075.44;;;26.58;52.35
73870;BME280;64924;42.140;24.762;2023-07-31T04:01:57;99068.97;;;26.49;52.26
73870;BME280;64924;42.140;24.762;2023-07-31T04:04:22;99085.38;;;26.50;52.19
73870;BME280;64924;42.140;24.762;2023-07-31T04:06:48;99076.72;;;26.38;52.46
73870;BME280;64924;42.140;24.762;2023-07-31T04:09:13;99082.28;;;26.38;52.55
73870;BME280;64924;42.140;24.762;2023-07-31T04:11:39;99079.81;;;26.37;52.24
73870;BME280;64924;42.140;24.762;2023-07-31T04:14:04;99043.34;;;26.11;52.71
73870;BME280;64924;42.140;24.762;2023-07-31T04:16:30;99085.81;;;26.30;52.84
73870;BME280;64924;42.140;24.762;2023-07-31T04:18:55;99085.41;;;26.23;53.26
73870;BME280;64924;42.140;24.762;2023-07-31T04:21:21;99099.16;;;26.19;53.51
73870;BME280;64924;42.140;24.762;2023-07-31T04:23:46;99097.69;;;26.22;53.75
73870;BME280;64924;42.140;24.762;2023-07-31T04:26:12;99102.25;;;26.18;53.88
73870;BME280;64924;42.140;24.762;2023-07-31T04:28:37;99060.13;;;25.97;53.49
73870;BME280;64924;42.140;24.762;2023-07-31T04:31:02;99077.78;;;26.15;53.55
73870;BME280;64924;42.140;24.762;2023-07-31T04:33:28;99087.59;;;26.12;53.49
73870;BME280;64924;42.140;24.762;2023-07-31T04:35:54;99099.34;;;26.23;53.91
73870;BME280;64924;42.140;24.762;2023-07-31T04:38:20;99090.59;;;26.16;53.34
73870;BME280;64924;42.140;24.762;2023-07-31T04:40:46;99099.56;;;26.26;53.31
73870;BME280;64924;42.140;24.762;2023-07-31T04:43:12;99107.06;;;26.40;52.76
73870;BME280;64924;42.140;24.762;2023-07-31T04:45:37;99102.09;;;26.50;52.42
73870;BME280;64924;42.140;24.762;2023-07-31T04:48:03;99109.00;;;26.53;52.32
73870;BME280;64924;42.140;24.762;2023-07-31T04:50:29;99107.13;;;26.62;52.40
73870;BME280;64924;42.140;24.762;2023-07-31T04:52:56;99102.66;;;26.61;51.81
73870;BME280;64924;42.140;24.762;2023-07-31T04:55:21;99059.06;;;26.43;52.06
73870;BME280;64924;42.140;24.762;2023-07-31T04:57:46;99091.72;;;26.64;51.49
73870;BME280;64924;42.140;24.762;2023-07-31T05:00:12;99109.00;;;26.75;51.12
73870;BME280;64924;42.140;24.762;2023-07-31T05:02:38;99095.13;;;26.84;50.98
73870;BME280;64924;42.140;24.762;2023-07-31T05:05:03;99094.69;;;26.90;50.92
73870;BME280;64924;42.140;24.762;2023-07-31T05:07:29;99083.22;;;26.92;50.42
73870;BME280;64924;42.140;24.762;2023-07-31T05:09:54;99079.59;;;27.05;50.60
73870;BME280;64924;42.140;24.762;2023-07-31T05:12:20;99071.66;;;26.99;50.05
73870;BME280;64924;42.140;24.762;2023-07-31T05:14:45;99102.16;;;27.26;49.92
73870;BME280;64924;42.140;24.762;2023-07-31T05:17:11;99061.41;;;27.16;49.56
73870;BME280;64924;42.140;24.762;2023-07-31T05:19:36;99075.97;;;27.36;49.30
73870;BME280;64924;42.140;24.762;2023-07-31T05:22:02;99084.91;;;27.46;48.81
73870;BME280;64924;42.140;24.762;2023-07-31T05:24:27;99084.09;;;27.54;48.88
73870;BME280;64924;42.140;24.762;2023-07-31T05:26:53;99104.03;;;27.61;49.13
73870;BME280;64924;42.140;24.762;2023-07-31T05:29:18;99061.38;;;27.39;49.16
73870;BME280;64924;42.140;24.762;2023-07-31T05:31:44;99061.91;;;27.49;48.80
73870;BME280;64924;42.140;24.762;2023-07-31T05:34:09;99085.88;;;27.81;48.57
73870;BME280;64924;42.140;24.762;2023-07-31T05:36:35;99063.88;;;27.80;47.90
73870;BME280;64924;42.140;24.762;2023-07-31T05:39:00;99102.38;;;28.09;47.82
73870;BME280;64924;42.140;24.762;2023-07-31T05:41:31;99057.19;;;28.15;46.93
73870;BME280;64924;42.140;24.762;2023-07-31T05:43:56;99104.25;;;29.17;45.15
73870;BME280;64924;42.140;24.762;2023-07-31T05:46:22;99085.44;;;29.43;43.89
73870;BME280;64924;42.140;24.762;2023-07-31T05:48:47;99110.81;;;29.76;42.29
73870;BME280;64924;42.140;24.762;2023-07-31T05:51:13;99102.19;;;29.90;41.57
73870;BME280;64924;42.140;24.762;2023-07-31T05:53:38;99111.13;;;29.83;42.01
73870;BME280;64924;42.140;24.762;2023-07-31T05:56:06;99072.22;;;29.90;41.83
73870;BME280;64924;42.140;24.762;2023-07-31T05:58:32;99101.91;;;31.37;38.86
73870;BME280;64924;42.140;24.762;2023-07-31T06:00:57;99107.28;;;32.12;37.06
73870;BME280;64924;42.140;24.762;2023-07-31T06:03:22;99110.78;;;32.33;36.91
73870;BME280;64924;42.140;24.762;2023-07-31T06:05:48;99111.88;;;32.69;36.45
73870;BME280;64924;42.140;24.762;2023-07-31T06:08:13;99103.56;;;33.87;34.07
73870;BME280;64924;42.140;24.762;2023-07-31T06:10:39;99083.16;;;35.18;31.84
73870;BME280;64924;42.140;24.762;2023-07-31T06:13:04;99096.56;;;36.13;30.23
73870;BME280;64924;42.140;24.762;2023-07-31T06:15:30;99061.38;;;36.67;28.84
73870;BME280;64924;42.140;24.762;2023-07-31T06:17:56;99092.72;;;37.92;27.24
73870;BME280;64924;42.140;24.762;2023-07-31T06:20:21;99085.72;;;38.99;25.73
73870;BME280;64924;42.140;24.762;2023-07-31T06:22:47;99058.16;;;39.03;25.52
73870;BME280;64924;42.140;24.762;2023-07-31T06:25:12;99084.81;;;38.77;25.77
73870;BME280;64924;42.140;24.762;2023-07-31T06:27:38;99092.69;;;39.13;25.11
73870;BME280;64924;42.140;24.762;2023-07-31T06:30:03;99096.09;;;39.86;24.31
73870;BME280;64924;42.140;24.762;2023-07-31T06:32:30;99094.41;;;40.77;22.65
73870;BME280;64924;42.140;24.762;2023-07-31T06:34:55;99088.16;;;41.03;22.22
73870;BME280;64924;42.140;24.762;2023-07-31T06:37:21;99088.06;;;41.28;22.13
73870;BME280;64924;42.140;24.762;2023-07-31T06:39:46;99102.22;;;42.05;21.52
73870;BME280;64924;42.140;24.762;2023-07-31T06:42:12;99085.94;;;42.43;20.68
73870;BME280;64924;42.140;24.762;2023-07-31T06:44:37;99097.38;;;42.43;21.23
73870;BME280;64924;42.140;24.762;2023-07-31T06:47:03;99091.19;;;42.86;20.81
73870;BME280;64924;42.140;24.762;2023-07-31T06:49:28;99087.94;;;43.14;20.30
73870;BME280;64924;42.140;24.762;2023-07-31T06:51:54;99084.16;;;43.24;19.94
73870;BME280;64924;42.140;24.762;2023-07-31T06:54:19;99080.63;;;43.71;19.24
73870;BME280;64924;42.140;24.762;2023-07-31T06:56:45;99086.00;;;43.92;18.93
73870;BME280;64924;42.140;24.762;2023-07-31T06:59:10;99083.25;;;44.12;19.06
73870;BME280;64924;42.140;24.762;2023-07-31T07:01:36;99077.47;;;43.88;19.57
73870;BME280;64924;42.140;24.762;2023-07-31T07:04:01;99091.03;;;43.57;19.51
73870;BME280;64924;42.140;24.762;2023-07-31T07:06:27;99079.38;;;43.45;19.97
73870;BME280;64924;42.140;24.762;2023-07-31T07:08:52;99077.41;;;43.68;19.71
73870;BME280;64924;42.140;24.762;2023-07-31T07:11:18;99075.53;;;43.28;19.69
73870;BME280;64924;42.140;24.762;2023-07-31T07:13:43;99077.81;;;43.40;19.57
73870;BME280;64924;42.140;24.762;2023-07-31T07:16:09;99092.97;;;43.07;20.29
73870;BME280;64924;42.140;24.762;2023-07-31T07:18:35;99060.81;;;42.65;20.64
73870;BME280;64924;42.140;24.762;2023-07-31T07:21:01;99079.78;;;42.48;20.35
73870;BME280;64924;42.140;24.762;2023-07-31T07:23:27;99078.78;;;42.24;20.63
73870;BME280;64924;42.140;24.762;2023-07-31T07:25:53;99092.25;;;41.76;21.48
73870;BME280;64924;42.140;24.762;2023-07-31T07:28:18;99091.41;;;41.79;21.40
73870;BME280;64924;42.140;24.762;2023-07-31T07:30:44;99069.91;;;42.15;20.63
73870;BME280;64924;42.140;24.762;2023-07-31T07:33:09;99075.41;;;42.70;20.33
73870;BME280;64924;42.140;24.762;2023-07-31T07:35:35;99068.28;;;43.20;20.34
73870;BME280;64924;42.140;24.762;2023-07-31T07:38:02;99052.28;;;43.26;19.39
73870;BME280;64924;42.140;24.762;2023-07-31T07:40:27;99048.25;;;43.20;20.12
73870;BME280;64924;42.140;24.762;2023-07-31T07:42:53;99079.50;;;43.64;19.46
73870;BME280;64924;42.140;24.762;2023-07-31T07:45:18;99043.81;;;43.15;19.96
73870;BME280;64924;42.140;24.762;2023-07-31T07:47:44;99067.34;;;43.30;19.45
73870;BME280;64924;42.140;24.762;2023-07-31T07:50:09;99074.53;;;42.77;20.46
73870;BME280;64924;42.140;24.762;2023-07-31T07:52:35;99069.19;;;42.45;20.65
73870;BME280;64924;42.140;24.762;2023-07-31T07:55:00;99064.28;;;42.04;21.36
73870;BME280;64924;42.140;24.762;2023-07-31T07:57:26;99076.63;;;41.91;21.02
73870;BME280;64924;42.140;24.762;2023-07-31T07:59:53;99044.53;;;41.21;21.68
73870;BME280;64924;42.140;24.762;2023-07-31T08:02:19;99075.22;;;41.61;21.39
73870;BME280;64924;42.140;24.762;2023-07-31T08:04:44;99072.06;;;41.97;20.77
73870;BME280;64924;42.140;24.762;2023-07-31T08:07:11;99043.56;;;41.93;20.73
73870;BME280;64924;42.140;24.762;2023-07-31T08:09:37;99080.75;;;42.31;21.07
73870;BME280;64924;42.140;24.762;2023-07-31T08:12:03;99073.56;;;42.57;20.65
73870;BME280;64924;42.140;24.762;2023-07-31T08:14:29;99062.91;;;42.95;20.27
73870;BME280;64924;42.140;24.762;2023-07-31T08:16:56;99055.25;;;43.15;19.40
73870;BME280;64924;42.140;24.762;2023-07-31T08:19:22;99062.16;;;43.18;19.51
73870;BME280;64924;42.140;24.762;2023-07-31T08:21:47;99049.03;;;42.93;19.13
73870;BME280;64924;42.140;24.762;2023-07-31T08:24:13;99049.09;;;43.17;19.19
73870;BME280;64924;42.140;24.762;2023-07-31T08:26:38;99052.31;;;43.22;19.27
73870;BME280;64924;42.140;24.762;2023-07-31T08:29:04;99055.41;;;43.35;18.93
73870;BME280;64924;42.140;24.762;2023-07-31T08:31:29;99052.00;;;43.13;19.25
73870;BME280;64924;42.140;24.762;2023-07-31T08:33:57;99044.03;;;43.01;19.51
73870;BME280;64924;42.140;24.762;2023-07-31T08:36:22;99056.03;;;42.14;20.07
73870;BME280;64924;42.140;24.762;2023-07-31T08:38:48;99049.22;;;40.79;21.99
73870;BME280;64924;42.140;24.762;2023-07-31T08:41:13;99056.97;;;40.61;22.14
73870;BME280;64924;42.140;24.762;2023-07-31T08:43:39;99059.81;;;40.64;22.49
73870;BME280;64924;42.140;24.762;2023-07-31T08:46:05;99058.19;;;40.56;22.34
73870;BME280;64924;42.140;24.762;2023-07-31T08:48:31;99050.38;;;40.85;21.65
73870;BME280;64924;42.140;24.762;2023-07-31T08:50:58;99027.13;;;40.94;21.03
73870;BME280;64924;42.140;24.762;2023-07-31T08:53:23;99014.00;;;41.14;21.12
73870;BME280;64924;42.140;24.762;2023-07-31T08:55:49;99053.44;;;41.26;21.03
73870;BME280;64924;42.140;24.762;2023-07-31T08:58:15;99059.44;;;40.55;21.63
73870;BME280;64924;42.140;24.762;2023-07-31T09:00:41;99046.94;;;40.03;22.20
73870;BME280;64924;42.140;24.762;2023-07-31T09:05:39;99053.22;;;39.00;23.56
73870;BME280;64924;42.140;24.762;2023-07-31T09:08:06;99057.03;;;38.42;23.88
73870;BME280;64924;42.140;24.762;2023-07-31T09:10:34;99033.31;;;37.62;24.91
73870;BME280;64924;42.140;24.762;2023-07-31T09:13:00;99049.09;;;37.60;25.36
73870;BME280;64924;42.140;24.762;2023-07-31T09:15:27;99060.75;;;37.47;25.58
73870;BME280;64924;42.140;24.762;2023-07-31T09:18:00;99073.59;;;37.78;25.05
73870;BME280;64924;42.140;24.762;2023-07-31T09:20:26;99052.19;;;37.85;24.91
73870;BME280;64924;42.140;24.762;2023-07-31T09:22:52;99051.91;;;38.04;24.52
73870;BME280;64924;42.140;24.762;2023-07-31T09:30:22;99045.53;;;37.66;24.50
73870;BME280;64924;42.140;24.762;2023-07-31T09:32:50;99031.50;;;37.40;24.84
73870;BME280;64924;42.140;24.762;2023-07-31T09:35:32;99042.50;;;37.08;25.15
73870;BME280;64924;42.140;24.762;2023-07-31T09:38:13;99041.72;;;36.77;25.51
73870;BME280;64924;42.140;24.762;2023-07-31T09:40:41;99032.78;;;36.45;25.82
73870;BME280;64924;42.140;24.762;2023-07-31T09:43:08;99033.94;;;36.14;26.29
73870;BME280;64924;42.140;24.762;2023-07-31T09:45:37;99004.41;;;35.59;26.68
73870;BME280;64924;42.140;24.762;2023-07-31T09:48:08;99026.63;;;35.83;26.63
73870;BME280;64924;42.140;24.762;2023-07-31T09:50:37;99019.84;;;36.18;26.48
73870;BME280;64924;42.140;24.762;2023-07-31T09:53:05;99022.53;;;36.34;25.84
73870;BME280;64924;42.140;24.762;2023-07-31T09:55:31;99019.50;;;36.49;25.53
73870;BME280;64924;42.140;24.762;2023-07-31T09:57:57;99032.50;;;36.54;25.36
73870;BME280;64924;42.140;24.762;2023-07-31T10:00:24;99031.31;;;36.55;25.35
73870;BME280;64924;42.140;24.762;2023-07-31T10:02:52;99018.72;;;36.53;25.07
73870;BME280;64924;42.140;24.762;2023-07-31T10:05:19;99015.63;;;36.31;24.96
73870;BME280;64924;42.140;24.762;2023-07-31T10:07:57;99016.03;;;36.30;25.08
73870;BME280;64924;42.140;24.762;2023-07-31T10:10:22;99017.09;;;36.22;25.13
73870;BME280;64924;42.140;24.762;2023-07-31T10:12:49;99016.16;;;36.14;25.74
73870;BME280;64924;42.140;24.762;2023-07-31T10:15:15;99005.16;;;36.09;25.90
73870;BME280;64924;42.140;24.762;2023-07-31T10:17:41;98975.66;;;35.80;26.36
73870;BME280;64924;42.140;24.762;2023-07-31T10:20:07;99011.97;;;36.04;26.15
73870;BME280;64924;42.140;24.762;2023-07-31T10:22:34;98986.94;;;36.06;25.86
73870;BME280;64924;42.140;24.762;2023-07-31T10:25:01;98986.63;;;36.11;26.05
73870;BME280;64924;42.140;24.762;2023-07-31T10:27:27;99000.88;;;36.18;25.88
73870;BME280;64924;42.140;24.762;2023-07-31T10:29:55;98992.88;;;36.24;26.17
73870;BME280;64924;42.140;24.762;2023-07-31T10:32:22;98987.44;;;36.12;25.65
73870;BME280;64924;42.140;24.762;2023-07-31T10:34:49;98982.91;;;36.07;25.49
73870;BME280;64924;42.140;24.762;2023-07-31T10:37:22;98989.06;;;36.13;25.78
73870;BME280;64924;42.140;24.762;2023-07-31T10:40:12;98982.75;;;36.23;25.59
73870;BME280;64924;42.140;24.762;2023-07-31T10:42:46;98980.31;;;36.22;25.62
73870;BME280;64924;42.140;24.762;2023-07-31T10:45:13;98948.25;;;36.14;25.35
73870;BME280;64924;42.140;24.762;2023-07-31T10:47:43;98962.38;;;36.40;25.31
73870;BME280;64924;42.140;24.762;2023-07-31T10:50:18;98969.38;;;36.83;25.26
73870;BME280;64924;42.140;24.762;2023-07-31T10:52:48;98956.88;;;36.55;25.13
73870;BME280;64924;42.140;24.762;2023-07-31T10:55:26;98962.84;;;36.46;25.15
73870;BME280;64924;42.140;24.762;2023-07-31T10:57:53;98962.84;;;36.16;25.71
73870;BME280;64924;42.140;24.762;2023-07-31T11:00:29;98943.09;;;36.20;25.46
73870;BME280;64924;42.140;24.762;2023-07-31T11:03:01;98956.84;;;36.21;25.54
73870;BME280;64924;42.140;24.762;2023-07-31T11:08:23;98955.78;;;36.63;24.77
73870;BME280;64924;42.140;24.762;2023-07-31T11:10:51;98940.72;;;36.55;24.59
73870;BME280;64924;42.140;24.762;2023-07-31T11:13:32;98915.78;;;36.31;24.91
73870;BME280;64924;42.140;24.762;2023-07-31T11:15:59;98960.66;;;36.32;26.64
73870;BME280;64924;42.140;24.762;2023-07-31T11:18:28;98969.91;;;35.76;27.82
73870;BME280;64924;42.140;24.762;2023-07-31T11:20:54;98988.53;;;34.86;29.56
73870;BME280;64924;42.140;24.762;2023-07-31T11:23:21;98983.13;;;33.53;32.04
73870;BME280;64924;42.140;24.762;2023-07-31T11:25:46;98972.47;;;32.71;33.74
73870;BME280;64924;42.140;24.762;2023-07-31T11:28:13;98990.03;;;32.25;34.94
73870;BME280;64924;42.140;24.762;2023-07-31T11:30:40;98992.53;;;31.77;35.21
73870;BME280;64924;42.140;24.762;2023-07-31T11:33:07;98980.47;;;31.40;36.07
73870;BME280;64924;42.140;24.762;2023-07-31T11:35:35;98968.41;;;31.28;35.84
73870;BME280;64924;42.140;24.762;2023-07-31T11:38:01;98980.16;;;30.97;36.29
73870;BME280;64924;42.140;24.762;2023-07-31T11:40:27;98934.53;;;30.54;37.04
73870;BME280;64924;42.140;24.762;2023-07-31T11:42:57;98955.97;;;31.04;36.34
73870;BME280;64924;42.140;24.762;2023-07-31T11:45:25;98964.44;;;31.29;36.34
73870;BME280;64924;42.140;24.762;2023-07-31T11:47:55;98958.84;;;31.77;35.25
73870;BME280;64924;42.140;24.762;2023-07-31T11:50:22;98974.19;;;32.20;33.74
73870;BME280;64924;42.140;24.762;2023-07-31T11:52:49;98961.66;;;32.17;33.27
73870;BME280;64924;42.140;24.762;2023-07-31T11:55:17;98974.75;;;31.85;33.92
73870;BME280;64924;42.140;24.762;2023-07-31T11:57:43;98937.78;;;31.35;34.39
73870;BME280;64924;42.140;24.762;2023-07-31T12:00:10;98964.91;;;31.55;33.91
73870;BME280;64924;42.140;24.762;2023-07-31T12:02:38;98966.06;;;31.90;34.01
73870;BME280;64924;42.140;24.762;2023-07-31T12:05:06;98966.56;;;31.80;35.05
73870;BME280;64924;42.140;24.762;2023-07-31T12:10:11;98901.22;;;31.59;34.69
73870;BME280;64924;42.140;24.762;2023-07-31T12:12:37;98941.31;;;31.96;34.24
73870;BME280;64924;42.140;24.762;2023-07-31T12:15:02;98912.72;;;32.06;34.23
73870;BME280;64924;42.140;24.762;2023-07-31T12:17:28;98950.78;;;32.28;34.06
73870;BME280;64924;42.140;24.762;2023-07-31T12:19:54;98941.88;;;32.14;34.32
73870;BME280;64924;42.140;24.762;2023-07-31T12:22:20;98943.88;;;32.26;34.08
73870;BME280;64924;42.140;24.762;2023-07-31T12:24:46;98923.66;;;32.36;33.96
73870;BME280;64924;42.140;24.762;2023-07-31T12:27:13;98912.72;;;32.46;33.61
73870;BME280;64924;42.140;24.762;2023-07-31T12:29:39;98922.28;;;32.58;33.75
73870;BME280;64924;42.140;24.762;2023-07-31T12:32:22;98873.72;;;32.61;33.20
73870;BME280;64924;42.140;24.762;2023-07-31T12:34:49;98880.84;;;32.42;33.12
73870;BME280;64924;42.140;24.762;2023-07-31T12:37:14;98901.25;;;32.83;32.87
73870;BME280;64924;42.140;24.762;2023-07-31T12:39:40;98896.19;;;32.88;32.45
73870;BME280;64924;42.140;24.762;2023-07-31T12:42:05;98892.72;;;32.79;31.52
73870;BME280;64924;42.140;24.762;2023-07-31T12:44:31;98901.00;;;33.04;30.80
73870;BME280;64924;42.140;24.762;2023-07-31T12:46:57;98895.75;;;33.34;29.90
73870;BME280;64924;42.140;24.762;2023-07-31T12:49:22;98899.19;;;33.78;29.05
73870;BME280;64924;42.140;24.762;2023-07-31T12:51:48;98895.81;;;33.72;30.14
73870;BME280;64924;42.140;24.762;2023-07-31T12:54:14;98908.38;;;33.40;30.00
73870;BME280;64924;42.140;24.762;2023-07-31T12:56:40;98901.34;;;33.18;30.30
73870;BME280;64924;42.140;24.762;2023-07-31T12:59:05;98901.44;;;33.21;30.40
73870;BME280;64924;42.140;24.762;2023-07-31T13:01:31;98902.81;;;32.96;30.23
73870;BME280;64924;42.140;24.762;2023-07-31T13:03:57;98898.59;;;32.74;30.65
73870;BME280;64924;42.140;24.762;2023-07-31T13:06:22;98890.03;;;32.71;32.08
73870;BME280;64924;42.140;24.762;2023-07-31T13:08:48;98888.13;;;32.43;34.55